Time;durP1;ratioP1;P1;durP2;ratioP2;P2;SDS_P1;SDS_P2;PMS_P1;PMS_P2;Temp;Humidity;BMP_temperature;BMP_pressure;BME280_temperature;BME280_humidity;BME280_pressure;Samples;Min_cycle;Max_cycle;Signal;HPM_P1;HPM_P2
2021/07/13 00:01:20;;;;;;;3.30;3.00;;;20.10;99.90;;;;;;4934475;29;20306;-46
2021/07/13 00:03:49;;;;;;;11.80;9.68;;;20.00;99.90;;;;;;4934483;29;20326;-50
2021/07/13 00:06:17;;;;;;;5.63;4.63;;;20.00;99.90;;;;;;4938239;29;20739;-48
2021/07/13 00:08:45;;;;;;;6.22;4.70;;;20.00;99.90;;;;;;4938077;29;20678;-51
2021/07/13 00:11:14;;;;;;;5.45;4.47;;;20.00;99.90;;;;;;4938314;29;20300;-54
2021/07/13 00:13:42;;;;;;;4.68;3.50;;;19.90;99.90;;;;;;4938815;29;20303;-46
2021/07/13 00:16:11;;;;;;;5.55;3.33;;;19.90;99.90;;;;;;4938304;29;20226;-50
2021/07/13 00:18:39;;;;;;;4.13;3.28;;;19.80;99.90;;;;;;4938327;29;20335;-51
2021/07/13 00:21:07;;;;;;;5.55;3.47;;;19.80;99.90;;;;;;4938359;29;20302;-47
2021/07/13 00:23:36;;;;;;;4.00;3.53;;;19.70;99.90;;;;;;4938022;29;20236;-50
2021/07/13 00:26:04;;;;;;;5.03;3.95;;;19.70;99.90;;;;;;4937952;29;20223;-49
2021/07/13 00:28:34;;;;;;;4.25;3.47;;;19.70;99.90;;;;;;4937970;29;20303;-52
2021/07/13 00:31:02;;;;;;;4.60;4.20;;;19.70;99.90;;;;;;4937783;29;20716;-51
2021/07/13 00:33:30;;;;;;;5.78;4.22;;;19.60;99.90;;;;;;4937833;29;20214;-50
2021/07/13 00:35:58;;;;;;;5.03;4.40;;;19.60;99.90;;;;;;4937801;29;20307;-53
2021/07/13 00:38:26;;;;;;;5.22;4.30;;;19.50;99.90;;;;;;4937621;29;20586;-50
2021/07/13 00:40:54;;;;;;;6.85;3.70;;;19.40;99.90;;;;;;4937594;29;20767;-50
2021/07/13 00:43:22;;;;;;;4.85;4.45;;;19.40;99.90;;;;;;4937810;29;20216;-53
2021/07/13 00:45:51;;;;;;;4.93;3.72;;;19.40;99.90;;;;;;4937725;29;20236;-50
2021/07/13 00:48:21;;;;;;;5.28;4.78;;;19.30;99.90;;;;;;4937682;29;20223;-47
2021/07/13 00:50:49;;;;;;;3.85;3.55;;;19.30;99.90;;;;;;4937497;29;20533;-52
2021/07/13 00:53:18;;;;;;;3.75;3.45;;;19.30;99.90;;;;;;4937469;29;20208;-51
2021/07/13 00:55:46;;;;;;;4.13;3.83;;;19.20;99.90;;;;;;4937421;29;20540;-51
2021/07/13 00:58:14;;;;;;;6.78;3.45;;;19.20;99.90;;;;;;4937373;29;20216;-48
2021/07/13 01:00:42;;;;;;;4.50;4.07;;;19.20;99.90;;;;;;4937558;29;20307;-49
2021/07/13 01:03:12;;;;;;;4.38;3.97;;;19.20;99.90;;;;;;4937385;29;20208;-49
2021/07/13 01:05:42;;;;;;;5.72;4.07;;;19.20;99.90;;;;;;4937030;29;20335;-49
2021/07/13 01:08:24;;;;;;;4.70;4.25;;;19.20;99.90;;;;;;4937195;29;20339;-51
2021/07/13 01:11:02;;;;;;;6.95;4.80;;;19.30;99.90;;;;;;4937262;29;20208;-51
2021/07/13 01:13:34;;;;;;;4.63;3.85;;;19.20;99.90;;;;;;4937124;29;20311;-49
2021/07/13 01:16:07;;;;;;;5.53;5.03;;;19.30;99.90;;;;;;4936370;29;20213;-51
2021/07/13 01:18:44;;;;;;;6.35;4.20;;;19.30;99.90;;;;;;4937281;29;20256;-51
2021/07/13 01:21:38;;;;;;;5.30;3.95;;;19.30;99.90;;;;;;4937121;29;20211;-51
2021/07/13 01:24:31;;;;;;;4.10;3.67;;;19.40;99.90;;;;;;4936906;29;20212;-51
2021/07/13 01:27:09;;;;;;;6.40;4.40;;;19.40;99.90;;;;;;4936770;29;20211;-52
2021/07/13 01:29:40;;;;;;;4.65;4.25;;;19.40;99.90;;;;;;4936860;29;20303;-48
2021/07/13 01:32:12;;;;;;;3.88;3.50;;;19.40;99.90;;;;;;4936778;29;20307;-53
2021/07/13 01:34:42;;;;;;;6.00;3.60;;;19.40;99.90;;;;;;4936806;29;20240;-51
2021/07/13 01:37:14;;;;;;;7.13;4.00;;;19.40;99.90;;;;;;4936537;29;20303;-49
2021/07/13 01:39:42;;;;;;;4.68;4.28;;;19.40;99.90;;;;;;4936543;29;20325;-51
2021/07/13 01:42:12;;;;;;;4.50;4.10;;;19.40;99.90;;;;;;4936662;29;20685;-50
2021/07/13 01:44:42;;;;;;;6.15;4.35;;;19.40;99.90;;;;;;4936592;29;20322;-52
2021/07/13 01:47:12;;;;;;;5.13;4.70;;;19.40;99.90;;;;;;4936772;29;20215;-53
2021/07/13 01:49:42;;;;;;;7.68;5.65;;;19.40;99.90;;;;;;4936399;29;20247;-53
2021/07/13 01:52:12;;;;;;;4.63;4.10;;;19.40;99.90;;;;;;4936451;29;20262;-52
2021/07/13 01:54:41;;;;;;;4.88;3.75;;;19.40;99.90;;;;;;4936515;29;20678;-53
2021/07/13 01:57:10;;;;;;;4.15;3.75;;;19.40;99.90;;;;;;4937269;29;20212;-52
2021/07/13 01:59:40;;;;;;;5.32;4.50;;;19.40;99.90;;;;;;4936588;29;20566;-51
2021/07/13 02:02:10;;;;;;;3.97;3.67;;;19.40;99.90;;;;;;4936391;29;20259;-49
2021/07/13 02:04:41;;;;;;;4.05;3.75;;;19.30;99.90;;;;;;4936333;29;20259;-52
2021/07/13 02:07:11;;;;;;;4.30;3.90;;;19.30;99.90;;;;;;4936232;29;20668;-51
2021/07/13 02:09:42;;;;;;;4.25;3.92;;;19.30;99.90;;;;;;4936275;29;20239;-50
2021/07/13 02:12:11;;;;;;;5.78;3.67;;;19.30;99.90;;;;;;4936150;29;20314;-51
2021/07/13 02:14:39;;;;;;;4.38;3.97;;;19.30;99.90;;;;;;4936167;29;20295;-49
2021/07/13 02:17:07;;;;;;;4.28;3.88;;;19.30;99.90;;;;;;4936242;29;20696;-53
2021/07/13 02:19:36;;;;;;;4.53;3.75;;;19.20;99.90;;;;;;4936457;29;20342;-51
2021/07/13 02:22:06;;;;;;;4.30;3.90;;;19.20;99.90;;;;;;4935951;29;20311;-48
2021/07/13 02:24:34;;;;;;;4.55;3.88;;;19.20;99.90;;;;;;4935997;29;20324;-50
2021/07/13 02:27:05;;;;;;;4.25;3.85;;;19.20;99.90;;;;;;4935929;29;20295;-50
2021/07/13 02:29:37;;;;;;;4.20;3.83;;;19.20;99.90;;;;;;4935864;29;20567;-53
2021/07/13 02:32:10;;;;;;;5.75;4.03;;;19.10;99.90;;;;;;4935953;29;20304;-50
2021/07/13 02:34:44;;;;;;;6.53;3.70;;;19.20;99.90;;;;;;4935836;29;20212;-50
2021/07/13 02:37:15;;;;;;;4.70;4.30;;;19.20;99.90;;;;;;4935633;29;20239;-53
2021/07/13 02:39:45;;;;;;;5.18;3.90;;;19.20;99.90;;;;;;4935605;29;20615;-48
2021/07/13 02:42:13;;;;;;;6.32;4.00;;;19.20;99.90;;;;;;4935556;29;20303;-50
2021/07/13 02:44:42;;;;;;;9.60;4.53;;;19.10;99.90;;;;;;4935581;29;20298;-51
2021/07/13 02:47:13;;;;;;;4.63;4.22;;;19.10;99.90;;;;;;4935472;29;20311;-51
2021/07/13 02:49:47;;;;;;;4.38;4.03;;;19.10;99.90;;;;;;4935554;29;20315;-49
2021/07/13 02:52:18;;;;;;;4.63;3.53;;;19.00;99.90;;;;;;4935438;29;20223;-48
2021/07/13 02:54:49;;;;;;;5.38;4.20;;;19.00;99.90;;;;;;4935686;29;20224;-48
2021/07/13 02:57:17;;;;;;;4.95;4.13;;;19.00;99.90;;;;;;4935795;29;20266;-47
2021/07/13 02:59:47;;;;;;;6.05;4.43;;;19.00;99.90;;;;;;4935425;29;20219;-50
2021/07/13 03:02:16;;;;;;;4.60;4.03;;;19.00;99.90;;;;;;4935411;29;20235;-47
2021/07/13 03:04:47;;;;;;;4.97;4.20;;;18.90;99.90;;;;;;4935212;29;20284;-48
2021/07/13 03:07:16;;;;;;;4.90;4.28;;;18.90;99.90;;;;;;4935474;29;20299;-49
2021/07/13 03:09:44;;;;;;;4.85;4.30;;;18.90;99.90;;;;;;4935200;29;20618;-48
2021/07/13 03:12:13;;;;;;;5.22;4.45;;;18.90;99.90;;;;;;4935179;29;20239;-46
2021/07/13 03:14:43;;;;;;;4.40;4.00;;;18.80;99.90;;;;;;4935259;29;20256;-44
2021/07/13 03:17:12;;;;;;;5.07;4.68;;;18.80;99.90;;;;;;4935104;29;20619;-48
2021/07/13 03:19:40;;;;;;;4.93;4.53;;;18.80;99.90;;;;;;4934948;29;20310;-50
2021/07/13 03:22:18;;;;;;;4.75;4.35;;;18.80;99.90;;;;;;4935451;29;20307;-50
2021/07/13 03:24:47;;;;;;;4.13;3.83;;;18.70;99.90;;;;;;4935125;29;20307;-48
2021/07/13 03:27:17;;;;;;;5.15;4.65;;;18.70;99.90;;;;;;4934940;29;20231;-53
2021/07/13 03:29:46;;;;;;;5.57;5.07;;;18.70;99.90;;;;;;4934893;29;20430;-48
2021/07/13 03:32:16;;;;;;;6.28;4.65;;;18.60;99.90;;;;;;4935214;29;20216;-47
2021/07/13 03:34:46;;;;;;;9.90;5.47;;;18.60;99.90;;;;;;4934742;29;20376;-47
2021/07/13 03:37:16;;;;;;;4.85;4.35;;;18.50;99.90;;;;;;4934764;29;20243;-50
2021/07/13 03:39:45;;;;;;;5.55;4.88;;;18.50;99.90;;;;;;4938028;29;20251;-50
2021/07/13 03:42:13;;;;;;;5.57;4.88;;;18.40;99.90;;;;;;4940999;29;20306;-48
2021/07/13 03:44:42;;;;;;;6.50;5.20;;;18.40;99.90;;;;;;4941063;29;20263;-49
2021/07/13 03:47:12;;;;;;;5.35;4.85;;;18.40;99.90;;;;;;4941021;29;20318;-48
2021/07/13 03:49:42;;;;;;;4.75;4.25;;;18.30;99.90;;;;;;4941168;29;20215;-49
2021/07/13 03:52:16;;;;;;;4.30;3.90;;;18.30;99.90;;;;;;4941276;29;20222;-46
2021/07/13 03:54:44;;;;;;;5.20;4.70;;;18.20;99.90;;;;;;4940943;29;20211;-47
2021/07/13 03:57:12;;;;;;;4.00;3.70;;;18.20;99.90;;;;;;4940889;29;20672;-46
2021/07/13 03:59:42;;;;;;;5.43;4.53;;;18.20;99.90;;;;;;4940885;29;20235;-49
2021/07/13 04:02:10;;;;;;;5.68;4.93;;;18.20;99.90;;;;;;4940594;29;20259;-50
2021/07/13 04:04:39;;;;;;;5.15;4.40;;;18.20;99.90;;;;;;4940716;29;20250;-51
2021/07/13 04:07:07;;;;;;;7.28;4.70;;;18.20;99.90;;;;;;4940412;29;20687;-49
2021/07/13 04:09:37;;;;;;;7.53;5.18;;;18.20;99.90;;;;;;4940729;29;20339;-54
2021/07/13 04:12:05;;;;;;;7.47;5.28;;;18.20;99.90;;;;;;4941030;29;20236;-51
2021/07/13 04:14:34;;;;;;;5.15;4.75;;;18.20;99.90;;;;;;4940744;29;20207;-45
2021/07/13 04:17:03;;;;;;;6.63;4.60;;;18.20;99.90;;;;;;4941095;29;20204;-49
2021/07/13 04:19:31;;;;;;;5.10;4.32;;;18.20;99.90;;;;;;4940827;29;20212;-48
2021/07/13 04:21:59;;;;;;;5.43;4.93;;;18.20;99.90;;;;;;4940335;29;20219;-49
2021/07/13 04:24:27;;;;;;;7.32;4.43;;;18.20;99.90;;;;;;4940679;29;20220;-51
2021/07/13 04:26:57;;;;;;;17.05;8.38;;;18.20;99.90;;;;;;4940702;29;20286;-52
2021/07/13 04:29:25;;;;;;;11.07;6.10;;;18.30;99.90;;;;;;4940878;29;20616;-46
2021/07/13 04:31:53;;;;;;;5.85;5.30;;;18.30;99.90;;;;;;4940740;29;20250;-52
2021/07/13 04:34:22;;;;;;;6.95;6.22;;;18.30;99.90;;;;;;4940736;29;20278;-49
2021/07/13 04:36:50;;;;;;;6.97;4.95;;;18.40;99.90;;;;;;4940842;29;20259;-51
2021/07/13 04:39:18;;;;;;;7.40;6.70;;;18.40;99.90;;;;;;4940967;29;20258;-50
2021/07/13 04:41:45;;;;;;;5.95;5.07;;;18.50;99.90;;;;;;4941100;29;20247;-50
2021/07/13 04:44:16;;;;;;;5.65;5.13;;;18.60;99.90;;;;;;4940796;29;20208;-53
2021/07/13 04:46:44;;;;;;;6.28;5.68;;;18.60;99.90;;;;;;4941106;29;20563;-50
2021/07/13 04:49:12;;;;;;;7.22;5.95;;;18.70;99.90;;;;;;4941035;29;20236;-50
2021/07/13 04:51:40;;;;;;;5.63;4.93;;;18.80;99.90;;;;;;4937192;29;20212;-50
2021/07/13 04:54:08;;;;;;;5.95;5.28;;;18.80;99.90;;;;;;4937614;29;20692;-45
2021/07/13 04:56:36;;;;;;;6.45;5.00;;;18.90;99.90;;;;;;4937919;29;20227;-49
2021/07/13 04:59:04;;;;;;;7.55;5.38;;;18.90;99.90;;;;;;4937915;29;20397;-47
2021/07/13 05:01:33;;;;;;;7.05;5.05;;;18.90;99.90;;;;;;4937674;29;20239;-46
2021/07/13 05:04:01;;;;;;;5.72;5.13;;;18.90;99.90;;;;;;4937588;29;20223;-46
2021/07/13 05:06:29;;;;;;;5.75;5.25;;;18.90;99.90;;;;;;4937355;29;20760;-46
2021/07/13 05:08:57;;;;;;;5.82;5.22;;;18.90;99.90;;;;;;4937199;29;20250;-48
2021/07/13 05:11:26;;;;;;;5.32;4.70;;;18.80;99.90;;;;;;4937865;29;20550;-47
2021/07/13 05:13:54;;;;;;;7.40;5.18;;;18.90;99.90;;;;;;4937307;29;20219;-48
2021/07/13 05:16:23;;;;;;;5.15;4.72;;;18.90;99.90;;;;;;4937514;29;20774;-46
2021/07/13 05:18:52;;;;;;;6.05;4.97;;;18.90;99.90;;;;;;4938024;29;20660;-49
2021/07/13 05:21:20;;;;;;;5.80;5.30;;;18.90;99.90;;;;;;4937296;29;20307;-49
2021/07/13 05:23:48;;;;;;;6.53;5.28;;;18.90;99.90;;;;;;4937471;29;20261;-49
2021/07/13 05:26:16;;;;;;;8.10;4.95;;;18.90;99.90;;;;;;4937010;29;20212;-48
2021/07/13 05:28:45;;;;;;;5.85;5.20;;;18.80;99.90;;;;;;4937630;29;20259;-49
2021/07/13 05:31:13;;;;;;;6.38;5.38;;;18.90;99.90;;;;;;4937074;29;20462;-47
2021/07/13 05:33:41;;;;;;;9.13;6.03;;;18.90;99.90;;;;;;4937311;29;20267;-51
2021/07/13 05:36:10;;;;;;;5.53;5.03;;;18.90;99.90;;;;;;4937233;29;20223;-51
2021/07/13 05:38:39;;;;;;;5.07;4.47;;;18.90;99.90;;;;;;4937352;29;20212;-47
2021/07/13 05:41:07;;;;;;;5.80;5.00;;;19.00;99.90;;;;;;4937055;29;20303;-46
2021/07/13 05:43:35;;;;;;;5.75;5.30;;;19.00;99.90;;;;;;4937066;29;20211;-45
2021/07/13 05:46:03;;;;;;;8.18;5.22;;;19.10;99.90;;;;;;4937018;29;20209;-48
2021/07/13 05:48:31;;;;;;;6.03;5.35;;;19.10;99.90;;;;;;4936794;29;20327;-48
2021/07/13 05:50:58;;;;;;;4.97;4.53;;;19.20;99.90;;;;;;4936035;29;20226;-46
2021/07/13 05:53:28;;;;;;;6.80;6.00;;;19.20;99.90;;;;;;4936498;29;20311;-44
2021/07/13 05:55:56;;;;;;;6.22;5.63;;;19.30;99.90;;;;;;4937068;29;20747;-46
2021/07/13 05:58:24;;;;;;;6.10;5.43;;;19.40;99.90;;;;;;4936790;29;20291;-51
2021/07/13 06:00:52;;;;;;;9.95;6.22;;;19.50;99.90;;;;;;4936552;29;20212;-48
2021/07/13 06:03:20;;;;;;;7.03;6.32;;;19.50;99.90;;;;;;4935885;29;20216;-49
2021/07/13 06:05:48;;;;;;;7.30;5.47;;;19.60;99.90;;;;;;4935306;29;20664;-47
2021/07/13 06:08:16;;;;;;;7.25;6.07;;;19.60;99.90;;;;;;4935906;29;20268;-52
2021/07/13 06:10:45;;;;;;;8.43;6.97;;;19.60;99.90;;;;;;4936148;29;20250;-48
2021/07/13 06:13:13;;;;;;;6.45;5.78;;;19.70;99.90;;;;;;4936043;29;20211;-45
2021/07/13 06:15:42;;;;;;;8.13;6.28;;;19.70;99.90;;;;;;4936038;29;20578;-50
2021/07/13 06:18:10;;;;;;;6.28;5.68;;;19.70;99.90;;;;;;4936067;29;20303;-47
2021/07/13 06:20:38;;;;;;;7.10;6.40;;;19.80;99.90;;;;;;4935817;29;20217;-48
2021/07/13 06:23:10;;;;;;;7.20;5.97;;;19.80;99.90;;;;;;4935903;29;20212;-46
2021/07/13 06:25:38;;;;;;;8.02;5.85;;;19.80;99.90;;;;;;4935914;29;20212;-48
2021/07/13 06:28:08;;;;;;;11.18;6.40;;;19.80;99.90;;;;;;4935699;29;20235;-48
2021/07/13 06:30:36;;;;;;;7.93;6.68;;;19.80;99.90;;;;;;4935539;29;20208;-47
2021/07/13 06:33:04;;;;;;;6.68;5.90;;;19.80;99.90;;;;;;4935516;29;20698;-47
2021/07/13 06:35:33;;;;;;;7.53;5.82;;;19.80;99.90;;;;;;4935691;29;20212;-48
2021/07/13 06:38:02;;;;;;;7.15;6.13;;;19.80;99.90;;;;;;4935516;29;20232;-50
2021/07/13 06:40:31;;;;;;;9.55;6.63;;;19.80;99.90;;;;;;4935474;29;20219;-49
2021/07/13 06:42:59;;;;;;;6.57;5.93;;;19.90;99.90;;;;;;4935936;29;20307;-47
2021/07/13 06:45:28;;;;;;;6.88;6.28;;;19.80;99.90;;;;;;4935173;29;20302;-48
2021/07/13 06:47:56;;;;;;;6.18;5.57;;;19.70;99.90;;;;;;4935438;29;20303;-49
2021/07/13 06:50:25;;;;;;;6.82;6.13;;;19.80;99.90;;;;;;4935022;29;20694;-52
2021/07/13 06:52:54;;;;;;;5.60;5.10;;;19.80;99.90;;;;;;4935479;29;20216;-48
2021/07/13 06:55:22;;;;;;;6.13;5.53;;;19.80;99.90;;;;;;4935321;29;20630;-48
2021/07/13 06:57:50;;;;;;;5.78;5.28;;;19.90;99.90;;;;;;4935104;29;20310;-46
2021/07/13 07:00:18;;;;;;;8.23;6.40;;;20.10;99.90;;;;;;4935262;29;20570;-45
2021/07/13 07:02:47;;;;;;;7.10;6.00;;;20.30;99.90;;;;;;4935099;29;20223;-48
2021/07/13 07:05:16;;;;;;;6.25;5.75;;;20.40;99.90;;;;;;4934852;29;20271;-44
2021/07/13 07:07:45;;;;;;;6.10;5.60;;;20.50;99.90;;;;;;4935364;29;20347;-51
2021/07/13 07:10:14;;;;;;;5.90;5.40;;;20.60;99.90;;;;;;4935091;29;20226;-48
2021/07/13 07:12:43;;;;;;;6.32;5.72;;;20.80;99.90;;;;;;4935218;29;20224;-47
2021/07/13 07:15:12;;;;;;;6.80;5.57;;;21.10;99.90;;;;;;4934602;29;20319;-47
2021/07/13 07:17:44;;;;;;;5.45;4.95;;;21.20;99.90;;;;;;4935151;29;20290;-49
2021/07/13 07:20:15;;;;;;;6.30;5.60;;;21.20;99.90;;;;;;4935037;29;20218;-49
2021/07/13 07:22:43;;;;;;;5.40;4.90;;;21.30;99.90;;;;;;4934851;29;20727;-50
2021/07/13 07:25:12;;;;;;;6.05;5.53;;;21.50;99.90;;;;;;4934774;29;20250;-50
2021/07/13 07:27:41;;;;;;;5.38;4.90;;;21.60;99.90;;;;;;4934856;29;20242;-50
2021/07/13 07:30:11;;;;;;;5.15;4.65;;;21.70;99.90;;;;;;4935042;29;20319;-45
2021/07/13 07:32:41;;;;;;;6.75;6.05;;;21.80;99.90;;;;;;4934764;29;20353;-47
2021/07/13 07:35:11;;;;;;;5.80;5.32;;;21.80;99.90;;;;;;4934809;29;20231;-46
2021/07/13 07:37:41;;;;;;;6.38;5.82;;;21.80;99.90;;;;;;4934795;29;20204;-46
2021/07/13 07:40:17;;;;;;;6.85;6.35;;;21.80;99.90;;;;;;4934847;29;20240;-45
2021/07/13 07:42:45;;;;;;;6.25;5.57;;;21.70;99.90;;;;;;4934926;29;20208;-50
2021/07/13 07:45:15;;;;;;;6.82;6.07;;;21.70;99.90;;;;;;4934907;29;20212;-45
2021/07/13 07:47:43;;;;;;;6.43;5.82;;;21.70;99.90;;;;;;4934533;29;20311;-45
2021/07/13 07:50:13;;;;;;;10.90;6.18;;;21.70;99.90;;;;;;4934837;29;20287;-49
2021/07/13 07:52:42;;;;;;;7.93;6.47;;;21.70;99.90;;;;;;4934768;29;20619;-46
2021/07/13 07:55:12;;;;;;;7.20;6.45;;;21.70;99.90;;;;;;4934725;29;20302;-45
2021/07/13 07:57:40;;;;;;;8.75;7.85;;;21.50;99.90;;;;;;4934678;29;20267;-48
2021/07/13 08:00:11;;;;;;;9.20;8.32;;;21.40;99.90;;;;;;4934700;29;20271;-46
2021/07/13 08:02:39;;;;;;;8.93;7.28;;;21.30;99.90;;;;;;4934467;29;20208;-47
2021/07/13 08:05:08;;;;;;;7.60;6.85;;;21.30;99.90;;;;;;4934751;29;20251;-45
2021/07/13 08:07:36;;;;;;;9.15;7.40;;;21.40;99.90;;;;;;4934318;29;20294;-48
2021/07/13 08:10:08;;;;;;;8.32;7.57;;;21.50;99.90;;;;;;4934446;29;20271;-45
2021/07/13 08:12:36;;;;;;;8.10;7.40;;;21.50;99.90;;;;;;4934379;29;20216;-44
2021/07/13 08:15:04;;;;;;;8.63;7.93;;;21.50;99.90;;;;;;4934180;29;20303;-45
2021/07/13 08:17:33;;;;;;;7.85;7.25;;;21.50;99.90;;;;;;4934504;29;20216;-48
2021/07/13 08:20:00;;;;;;;8.93;8.05;;;21.50;99.90;;;;;;4934305;29;20247;-50
2021/07/13 08:22:29;;;;;;;8.82;8.02;;;21.60;99.90;;;;;;4934340;29;20212;-49
2021/07/13 08:24:57;;;;;;;9.57;8.77;;;21.70;99.90;;;;;;4934594;29;20328;-47
2021/07/13 08:27:28;;;;;;;9.48;8.68;;;21.80;99.90;;;;;;4938063;29;20302;-49
2021/07/13 08:29:55;;;;;;;10.30;9.35;;;21.80;99.90;;;;;;4937629;29;20263;-46
2021/07/13 08:32:23;;;;;;;7.85;7.20;;;21.90;99.90;;;;;;4937978;29;20238;-46
2021/07/13 08:34:51;;;;;;;10.05;9.07;;;22.00;99.90;;;;;;4937662;29;20754;-44
2021/07/13 08:37:21;;;;;;;8.82;8.07;;;22.10;99.90;;;;;;4937470;29;20220;-50
2021/07/13 08:39:49;;;;;;;9.02;8.30;;;22.10;99.90;;;;;;4937594;29;20220;-45
2021/07/13 08:42:17;;;;;;;8.82;8.13;;;22.10;99.90;;;;;;4937464;29;20299;-47
2021/07/13 08:44:47;;;;;;;8.35;7.57;;;22.20;99.90;;;;;;4937379;29;20310;-46
2021/07/13 08:47:16;;;;;;;8.50;7.70;;;22.20;99.90;;;;;;4937115;29;20306;-48
2021/07/13 08:49:44;;;;;;;8.35;7.75;;;22.30;99.90;;;;;;4937285;29;20695;-47
2021/07/13 08:52:13;;;;;;;8.05;7.45;;;22.40;99.90;;;;;;4937459;29;20270;-47
2021/07/13 08:54:41;;;;;;;8.80;7.93;;;22.40;99.90;;;;;;4937178;29;20585;-48
2021/07/13 08:57:10;;;;;;;9.18;7.05;;;22.40;99.90;;;;;;4937240;29;20251;-48
2021/07/13 08:59:39;;;;;;;7.28;6.57;;;22.50;99.90;;;;;;4937401;29;20303;-46
2021/07/13 09:02:08;;;;;;;6.80;6.30;;;22.60;99.90;;;;;;4937324;29;20240;-50
2021/07/13 09:04:37;;;;;;;7.18;6.47;;;22.70;99.90;;;;;;4937117;29;20212;-48
2021/07/13 09:07:09;;;;;;;6.50;6.03;;;22.70;99.90;;;;;;4937048;29;20212;-46
2021/07/13 09:09:38;;;;;;;8.43;6.75;;;22.80;99.90;;;;;;4936824;29;20266;-45
2021/07/13 09:12:17;;;;;;;7.13;6.47;;;22.70;99.90;;;;;;4937038;29;20212;-45
2021/07/13 09:14:54;;;;;;;7.38;6.78;;;22.50;99.90;;;;;;4936966;29;20251;-49
2021/07/13 09:17:38;;;;;;;5.53;5.13;;;22.40;99.90;;;;;;4936921;29;20211;-49
2021/07/13 09:20:21;;;;;;;6.60;6.10;;;22.30;99.90;;;;;;4936975;29;20211;-45
2021/07/13 09:22:54;;;;;;;6.88;6.15;;;22.30;99.90;;;;;;4937046;29;20244;-45
2021/07/13 09:25:33;;;;;;;7.45;6.35;;;22.20;99.90;;;;;;4937078;29;20222;-46
2021/07/13 09:28:13;;;;;;;6.97;6.38;;;22.10;99.90;;;;;;4936734;29;20220;-44
2021/07/13 09:30:44;;;;;;;6.57;6.07;;;22.20;99.90;;;;;;4936698;29;20210;-45
2021/07/13 09:33:19;;;;;;;6.43;5.90;;;22.30;99.90;;;;;;4936576;29;20306;-47
2021/07/13 09:36:08;;;;;;;7.00;6.38;;;22.60;99.90;;;;;;4936613;29;20626;-50
2021/07/13 09:38:38;;;;;;;7.05;6.45;;;23.00;99.90;;;;;;4936096;29;20286;-49
2021/07/13 09:41:13;;;;;;;6.05;5.47;;;23.30;99.90;;;;;;4936525;29;20300;-48
2021/07/13 09:43:47;;;;;;;5.63;5.20;;;23.50;99.90;;;;;;4936412;29;20667;-49
2021/07/13 09:46:29;;;;;;;6.53;6.03;;;23.50;99.90;;;;;;4936245;29;20686;-48
2021/07/13 09:49:10;;;;;;;7.03;6.00;;;23.40;99.90;;;;;;4936044;29;20699;-50
2021/07/13 09:51:39;;;;;;;6.07;5.57;;;23.20;99.90;;;;;;4936526;29;20299;-49
2021/07/13 09:54:32;;;;;;;6.82;6.20;;;22.90;99.90;;;;;;4936049;29;20211;-48
2021/07/13 09:57:01;;;;;;;2.33;2.13;;;22.60;99.90;;;;;;4936044;29;20240;-46
2021/07/13 09:59:29;;;;;;;1.60;1.50;;;22.10;99.90;;;;;;4936229;29;20236;-48
2021/07/13 10:01:58;;;;;;;2.35;1.17;;;21.50;99.90;;;;;;4936109;29;20216;-46
2021/07/13 10:04:29;;;;;;;2.25;1.10;;;20.90;99.90;;;;;;4935897;29;20208;-48
2021/07/13 10:07:01;;;;;;;1.50;1.00;;;20.50;99.90;;;;;;4935892;29;20211;-47
2021/07/13 10:09:32;;;;;;;1.77;1.20;;;20.10;99.90;;;;;;4935918;29;20332;-48
2021/07/13 10:12:00;;;;;;;1.20;1.10;;;19.90;99.90;;;;;;4936077;29;20291;-49
2021/07/13 10:14:28;;;;;;;2.10;1.15;;;19.60;99.90;;;;;;4935870;29;20216;-48
2021/07/13 10:16:58;;;;;;;1.30;1.00;;;19.40;99.90;;;;;;4935788;29;20303;-49
2021/07/13 10:19:28;;;;;;;2.75;0.63;;;19.20;99.90;;;;;;4935769;29;20640;-48
2021/07/13 10:21:56;;;;;;;1.48;0.50;;;19.10;99.90;;;;;;4935657;29;20211;-50
2021/07/13 10:24:25;;;;;;;0.90;0.43;;;19.00;99.90;;;;;;4935579;29;20211;-46
2021/07/13 10:26:54;;;;;;;4.22;0.90;;;18.90;99.90;;;;;;4935483;29;20609;-47
2021/07/13 10:29:44;;;;;;;1.00;0.90;;;18.80;99.90;;;;;;4935443;29;20285;-48
2021/07/13 10:32:38;;;;;;;1.25;0.60;;;18.70;99.90;;;;;;4935409;29;20644;-49
2021/07/13 10:35:22;;;;;;;1.63;0.90;;;18.50;99.90;;;;;;4935514;29;20251;-49
2021/07/13 10:37:52;;;;;;;0.77;0.77;;;18.30;99.90;;;;;;4935451;29;20212;-47
2021/07/13 10:40:39;;;;;;;2.00;1.25;;;18.20;99.90;;;;;;4935429;29;20212;-50
2021/07/13 10:43:16;;;;;;;2.22;0.65;;;18.10;99.90;;;;;;4935480;29;20220;-46
2021/07/13 10:45:46;;;;;;;1.00;0.82;;;18.00;99.90;;;;;;4935447;29;20306;-46
2021/07/13 10:48:16;;;;;;;3.10;0.85;;;18.00;99.90;;;;;;4935084;29;20212;-43
2021/07/13 10:50:48;;;;;;;1.38;0.75;;;17.90;99.90;;;;;;4934759;29;20338;-44
2021/07/13 10:53:23;;;;;;;1.65;0.80;;;18.00;99.90;;;;;;4935173;29;20294;-44
2021/07/13 10:56:05;;;;;;;3.00;0.77;;;18.10;99.90;;;;;;4935346;29;20298;-46
2021/07/13 10:58:49;;;;;;;0.80;0.80;;;18.10;99.90;;;;;;4935101;29;20219;-45
2021/07/13 11:01:32;;;;;;;2.90;0.90;;;18.00;99.90;;;;;;4934803;29;20208;-45
2021/07/13 11:04:12;;;;;;;1.95;0.90;;;18.00;99.90;;;;;;4934829;29;20215;-46
2021/07/13 11:06:57;;;;;;;1.10;1.00;;;17.80;99.90;;;;;;4934944;29;20220;-44
2021/07/13 11:09:37;;;;;;;1.70;1.00;;;17.80;99.90;;;;;;4934739;29;20338;-44
2021/07/13 11:12:10;;;;;;;1.63;0.80;;;17.80;99.90;;;;;;4934715;29;20226;-42
2021/07/13 11:14:58;;;;;;;1.10;0.60;;;17.70;99.90;;;;;;4934773;29;20212;-47
2021/07/13 11:17:28;;;;;;;0.60;0.60;;;17.60;99.90;;;;;;4934988;29;20212;-43
2021/07/13 11:20:11;;;;;;;1.95;0.77;;;17.50;99.90;;;;;;4934837;29;20212;-42
2021/07/13 11:22:43;;;;;;;2.97;0.63;;;17.40;99.90;;;;;;4934566;29;20311;-46
2021/07/13 11:25:31;;;;;;;1.83;1.20;;;17.20;99.90;;;;;;4934688;29;20726;-42
2021/07/13 11:28:08;;;;;;;1.25;0.70;;;17.20;99.90;;;;;;4934529;29;20290;-43
2021/07/13 11:30:37;;;;;;;1.45;0.68;;;17.20;99.90;;;;;;4934623;29;20270;-45
2021/07/13 11:33:07;;;;;;;2.08;0.57;;;17.20;99.90;;;;;;4934315;29;20208;-48
2021/07/13 11:35:38;;;;;;;0.60;0.40;;;17.20;99.90;;;;;;4934586;29;20208;-47
2021/07/13 11:38:08;;;;;;;0.88;0.77;;;17.20;99.90;;;;;;4934609;29;20279;-44
2021/07/13 11:40:36;;;;;;;1.27;0.80;;;17.10;99.90;;;;;;4934462;29;20668;-46
2021/07/13 11:43:05;;;;;;;1.33;0.70;;;17.10;99.90;;;;;;4934405;29;20208;-44
2021/07/13 11:45:32;;;;;;;2.60;1.23;;;17.10;99.90;;;;;;4934648;29;20246;-45
2021/07/13 11:48:05;;;;;;;1.52;0.52;;;17.10;99.90;;;;;;4934557;29;20208;-44
2021/07/13 11:50:33;;;;;;;0.60;0.60;;;17.00;99.90;;;;;;4934460;29;20326;-44
2021/07/13 11:53:16;;;;;;;0.50;0.38;;;17.00;99.90;;;;;;4934675;29;20624;-42
2021/07/13 11:55:55;;;;;;;0.32;0.32;;;16.90;99.90;;;;;;4934520;29;20220;-46
2021/07/13 11:58:27;;;;;;;0.30;0.30;;;16.90;99.90;;;;;;4934596;29;20226;-46
2021/07/13 12:00:55;;;;;;;0.57;0.40;;;16.80;99.90;;;;;;4936309;29;20214;-45
2021/07/13 12:03:28;;;;;;;0.95;0.60;;;16.70;99.90;;;;;;4938218;29;20567;-45
2021/07/13 12:06:12;;;;;;;0.52;0.52;;;16.70;99.90;;;;;;4938242;29;20216;-44
2021/07/13 12:08:40;;;;;;;0.68;0.40;;;16.70;99.90;;;;;;4937952;29;20771;-43
2021/07/13 12:11:10;;;;;;;1.00;0.52;;;16.60;99.90;;;;;;4938187;29;20330;-46
2021/07/13 12:13:41;;;;;;;5.78;1.58;;;16.60;99.90;;;;;;4938285;29;20295;-47
2021/07/13 12:16:16;;;;;;;2.42;0.90;;;16.40;99.90;;;;;;4938097;29;20306;-43
2021/07/13 12:18:45;;;;;;;2.78;1.00;;;16.30;99.90;;;;;;4937958;29;20667;-47
2021/07/13 12:21:14;;;;;;;1.77;0.90;;;16.20;99.90;;;;;;4937952;29;20208;-46
2021/07/13 12:23:57;;;;;;;1.25;0.85;;;16.10;99.90;;;;;;4938063;29;20754;-46
2021/07/13 12:26:29;;;;;;;2.22;0.50;;;16.00;99.90;;;;;;4937957;29;20219;-44
2021/07/13 12:29:09;;;;;;;101.75;67.97;;;16.00;99.90;;;;;;4937670;29;20588;-42
2021/07/13 12:31:49;;;;;;;1.23;0.60;;;16.00;99.90;;;;;;4937810;29;20275;-45
2021/07/13 12:34:19;;;;;;;0.95;0.80;;;15.90;99.90;;;;;;4937976;29;20667;-51
2021/07/13 12:36:47;;;;;;;2.17;0.80;;;16.00;99.90;;;;;;4938042;29;20298;-47
2021/07/13 12:39:18;;;;;;;1.45;0.63;;;16.00;99.90;;;;;;4937528;29;20208;-44
2021/07/13 12:42:01;;;;;;;0.50;0.45;;;16.00;99.90;;;;;;4937726;29;20307;-46
2021/07/13 12:44:32;;;;;;;1.00;0.90;;;16.00;99.90;;;;;;4937633;29;20247;-47
2021/07/13 12:47:25;;;;;;;0.93;0.60;;;16.10;99.90;;;;;;4937762;29;20223;-48
2021/07/13 12:50:15;;;;;;;1.70;0.52;;;16.10;99.90;;;;;;4937546;29;20299;-45
2021/07/13 12:52:46;;;;;;;0.77;0.55;;;16.20;99.90;;;;;;4934918;29;20530;-49
2021/07/13 12:55:16;;;;;;;1.25;0.85;;;16.20;99.90;;;;;;4937828;29;20251;-47
2021/07/13 12:57:47;;;;;;;1.00;0.82;;;16.30;99.90;;;;;;4937428;29;20645;-49
2021/07/13 13:00:19;;;;;;;0.70;0.50;;;16.40;99.90;;;;;;4937254;29;20212;-50
2021/07/13 13:03:02;;;;;;;1.17;0.70;;;16.50;99.90;;;;;;4937667;29;20236;-49
2021/07/13 13:05:32;;;;;;;2.65;0.80;;;16.50;99.90;;;;;;4937629;29;20303;-47